createdAt,value
2017-09-17T16:07:12.167Z,20.11
2017-09-17T16:16:36.978Z,14.73
2017-09-17T16:26:05.716Z,12.87
2017-09-17T16:35:35.969Z,12.48
2017-09-17T16:45:08.274Z,12.38
2017-09-17T16:54:44.507Z,12.09
2017-09-17T17:04:17.678Z,11.90
2017-09-17T17:13:46.401Z,11.80
2017-09-17T17:23:19.229Z,11.80
2017-09-17T17:33:00.601Z,11.90
2017-09-17T17:42:31.835Z,11.70
2017-09-17T17:52:03.265Z,11.31
2017-09-17T18:01:36.568Z,11.60
2017-09-17T18:11:11.063Z,11.50
2017-09-17T18:20:45.097Z,11.50
2017-09-17T18:30:18.820Z,11.41
2017-09-17T18:39:52.681Z,11.11
2017-09-17T18:49:24.168Z,10.92
2017-09-17T18:59:00.610Z,10.33
2017-09-17T19:08:33.536Z,9.84
2017-09-17T19:18:07.863Z,9.74
2017-09-17T19:27:40.799Z,9.55
2017-09-17T19:37:18.499Z,9.45
2017-09-17T19:46:45.971Z,9.06
2017-09-17T19:56:24.417Z,8.96
2017-09-17T20:05:58.294Z,9.16
2017-09-17T20:15:32.230Z,9.06
2017-09-17T20:25:06.423Z,9.35
2017-09-17T20:34:40.804Z,9.25
2017-09-17T20:44:14.909Z,9.45
2017-09-17T20:53:49.273Z,9.55
2017-09-17T21:03:23.721Z,9.45
2017-09-17T21:12:58.250Z,9.55
2017-09-17T21:22:32.173Z,9.65
2017-09-17T21:32:10.902Z,9.45
2017-09-17T21:41:41.340Z,9.45
2017-09-17T21:51:14.874Z,9.55
2017-09-17T22:00:49.256Z,9.45
2017-09-17T22:10:23.381Z,9.55
2017-09-17T22:19:58.092Z,9.55
2017-09-17T22:29:31.558Z,9.45
2017-09-17T22:39:06.338Z,9.35
2017-09-17T22:48:40.106Z,9.25
2017-09-17T22:58:14.041Z,9.25
2017-09-17T23:07:47.661Z,9.26
2017-09-17T23:17:22.374Z,9.06
2017-09-17T23:26:56.521Z,9.06
2017-09-17T23:36:29.982Z,9.06
2017-09-17T23:46:04.199Z,9.26
2017-09-17T23:55:38.275Z,9.06
